Aeroporto :
LOGIN :

Iscrizione | Disclaimer

   EN    FR    IT 

 










Sommario :    VFR   VFR Marginale   IFR   IFR Intensivo   IFR Molto Intensivo
Visibilità : 
Base nubi : 
>= 8 km
>= 3000ft
5 / 8 km
1000 / 3000 ft
1500m / 5 km
500 / 1000 ft
800 / 1500m
200 / 500 ft
< 800m
< 200 ft
Simboli :   Temporali  Nebbia  Neve Forte  Precipitazioni Forti  Vento > 20 kt
SIGMETs :   Varie  Temporali  Ghiacco  Turbolenza  Onda orograficha  Ceneri Vulcaniche






- Altitudine del aeroporto : 20 ft


EBFN - Koksijde

ULTIMO METAR :
  • 300455Z AUTO 20006KT 1100 BR OVC002/// 03/02 Q1026 AMB

METARs OBSOLETI :
  • 300436Z AUTO 20006KT 1500 BR OVC004/// 03/02 Q1026 AMB
  • 300355Z AUTO 20006KT 2500 BR SCT004/// OVC009/// 02/02 Q1026 YLO
  • 300325Z AUTO 22007KT 2500 +DZ OVC005/// 02/02 Q1026 YLO
  • 300255Z AUTO 20008KT 2900 BR OVC005/// 02/02 Q1026 YLO
  • 300225Z AUTO 20006KT 3100 BR OVC005/// 02/02 Q1027 YLO

TAF TAF EBFN
Valido dal 29 a 19 ore il 30 a 07 ore UTC


291541Z 2919/3007 08004KT 6000 FEW010
TEMPO 2919/2920 BKN006
TEMPO 1920/2004 2000 BR
TEMPO 1922/2003 VRB02KT 0200 FG
BECMG 2002/2004 20004KT SCT010 SCT045 BKN090
TEMPO 2005/2007 BKN003 OVC005



MetMap, La meteo Aeronautica in un colpo d'occhio ! - Copyright ORBIFLY Dicembre 2007 - Disclaimer

ORBIFLY MET'MAP TEAM :

Programmazione e sviluppo : Alexandra Zaïnal
Concezione : Baudouin d'Aumeries
Aiuto per la programmazione : Marc-Olivier Méhu
Supporto tecnico e logistico : Manuel Goepfert
Aiuto per la traduzione : Arnaldo La Scala

Contatto : metmap@orbifly.com




FONTI E CREDITI :

   NOAA